createdAt,value
2019-03-22T00:02:18.627Z,32.04
2019-03-22T00:04:46.883Z,33.04
2019-03-22T00:07:15.778Z,30.66
2019-03-22T00:09:44.048Z,30.04
2019-03-22T00:12:12.380Z,29.13
2019-03-22T00:14:40.587Z,29.60
2019-03-22T00:17:08.881Z,29.49
2019-03-22T00:19:37.153Z,29.24
2019-03-22T00:22:05.414Z,29.83
2019-03-22T00:24:33.708Z,30.42
2019-03-22T00:27:01.975Z,30.70
2019-03-22T00:29:30.268Z,29.95
2019-03-22T00:31:58.532Z,29.11
2019-03-22T00:34:26.830Z,30.27
2019-03-22T00:36:55.114Z,31.24
2019-03-22T00:39:24.361Z,30.38
2019-03-22T00:41:52.653Z,30.65
2019-03-22T00:44:20.965Z,30.95
2019-03-22T00:46:49.233Z,31.38
2019-03-22T00:49:17.601Z,31.75
2019-03-22T00:51:45.881Z,31.12
2019-03-22T00:54:14.230Z,30.63
2019-03-22T00:56:43.202Z,31.75
2019-03-22T00:59:11.501Z,31.15
2019-03-22T01:01:39.866Z,31.30
2019-03-22T01:04:08.128Z,31.96
2019-03-22T01:06:36.567Z,32.13
2019-03-22T01:09:05.915Z,32.41
2019-03-22T01:11:34.241Z,32.29
2019-03-22T01:14:02.555Z,31.31
2019-03-22T01:16:30.877Z,31.01
2019-03-22T01:18:59.213Z,30.02
2019-03-22T01:21:27.472Z,29.40
2019-03-22T01:23:55.787Z,29.20
2019-03-22T01:26:24.051Z,28.49
2019-03-22T01:28:52.348Z,27.80
2019-03-22T01:31:20.606Z,27.17
2019-03-22T01:33:48.872Z,27.32
2019-03-22T01:36:17.171Z,27.30
2019-03-22T01:38:45.433Z,27.40
2019-03-22T01:41:13.776Z,27.82
2019-03-22T01:43:42.049Z,27.44
2019-03-22T01:46:10.328Z,27.04
2019-03-22T01:48:38.596Z,27.23
2019-03-22T01:51:06.855Z,26.73
2019-03-22T01:53:35.154Z,27.60
2019-03-22T01:56:03.411Z,27.53
2019-03-22T01:58:31.784Z,27.29
2019-03-22T02:01:00.154Z,27.04
2019-03-22T02:03:28.414Z,26.98
2019-03-22T02:05:56.705Z,26.59
2019-03-22T02:08:24.983Z,26.09
2019-03-22T02:10:53.252Z,26.64
2019-03-22T02:13:21.539Z,26.79
2019-03-22T02:15:49.795Z,27.23
2019-03-22T02:18:18.047Z,27.62
2019-03-22T02:20:46.324Z,27.12
2019-03-22T02:23:14.590Z,26.18
2019-03-22T02:25:42.851Z,26.33
2019-03-22T02:28:11.222Z,26.72
2019-03-22T02:30:39.486Z,27.25
2019-03-22T02:33:07.748Z,27.95
2019-03-22T02:35:36.022Z,27.25
2019-03-22T02:38:04.362Z,27.32
2019-03-22T02:40:32.630Z,27.01
2019-03-22T02:43:00.873Z,27.17
2019-03-22T02:45:29.153Z,27.33
2019-03-22T02:47:57.387Z,26.75
2019-03-22T02:50:25.653Z,26.69
2019-03-22T02:52:54.019Z,26.65
2019-03-22T02:55:22.294Z,26.89
2019-03-22T02:57:50.554Z,27.04
2019-03-22T03:00:19.292Z,26.79
2019-03-22T03:02:47.545Z,28.01
2019-03-22T03:05:17.273Z,27.61
2019-03-22T03:07:48.377Z,27.99
2019-03-22T03:10:17.034Z,27.53
2019-03-22T03:12:45.402Z,27.45
2019-03-22T03:15:17.650Z,27.70
2019-03-22T03:17:46.043Z,27.77
2019-03-22T03:20:16.925Z,29.31
2019-03-22T03:22:46.526Z,28.61
2019-03-22T03:25:15.249Z,28.33
2019-03-22T03:27:43.528Z,29.18
2019-03-22T03:30:20.717Z,28.47
2019-03-22T03:32:49.186Z,27.89
2019-03-22T03:35:17.980Z,28.18
2019-03-22T03:37:46.218Z,29.30
2019-03-22T03:40:15.138Z,29.04
2019-03-22T03:42:43.480Z,29.69
2019-03-22T03:45:20.593Z,29.01
2019-03-22T03:47:48.962Z,28.45
2019-03-22T03:50:17.242Z,28.65
2019-03-22T03:52:45.524Z,30.21
2019-03-22T03:55:13.860Z,29.68
2019-03-22T03:57:42.162Z,29.37
2019-03-22T04:00:10.473Z,28.98
2019-03-22T04:02:38.752Z,29.07
2019-03-22T04:05:07.183Z,28.11
2019-03-22T04:07:35.447Z,28.09
2019-03-22T04:10:07.193Z,28.65
2019-03-22T04:12:35.438Z,30.06
2019-03-22T04:15:07.273Z,29.53
2019-03-22T04:17:35.620Z,30.13
2019-03-22T04:20:05.709Z,29.45
2019-03-22T04:22:36.369Z,29.96
2019-03-22T04:25:05.917Z,29.34
2019-03-22T04:27:34.167Z,29.69
2019-03-22T04:30:02.434Z,28.99
2019-03-22T04:32:30.707Z,30.47
2019-03-22T04:34:58.979Z,30.93
2019-03-22T04:37:27.236Z,30.48
2019-03-22T04:39:55.494Z,30.52
2019-03-22T04:42:23.751Z,30.23
2019-03-22T04:44:52.035Z,29.78
2019-03-22T04:47:21.575Z,29.71
2019-03-22T04:49:50.393Z,29.88
2019-03-22T04:52:19.927Z,29.75
2019-03-22T04:54:49.570Z,31.09
2019-03-22T04:57:18.117Z,30.89
2019-03-22T04:59:47.458Z,31.50
2019-03-22T05:02:15.811Z,30.33
2019-03-22T05:04:45.308Z,30.03
2019-03-22T05:07:13.971Z,29.84
2019-03-22T05:09:43.012Z,30.13
2019-03-22T05:12:14.146Z,31.14
2019-03-22T05:14:42.452Z,31.60
2019-03-22T05:17:10.900Z,31.03
2019-03-22T05:19:42.155Z,32.02
2019-03-22T05:22:11.937Z,31.67
2019-03-22T05:24:41.581Z,30.57
2019-03-22T05:27:10.638Z,31.00
2019-03-22T05:29:39.523Z,30.89
2019-03-22T05:34:35.991Z,32.02
2019-03-22T05:37:05.023Z,31.71
2019-03-22T05:39:33.288Z,31.46
2019-03-22T05:42:01.575Z,31.49
2019-03-22T05:44:29.914Z,31.25
2019-03-22T05:46:58.551Z,32.70
2019-03-22T05:49:26.827Z,30.89
2019-03-22T05:51:55.093Z,31.34
2019-03-22T05:54:23.350Z,31.62
2019-03-22T05:56:51.613Z,31.66
2019-03-22T05:59:19.961Z,31.74
2019-03-22T06:01:48.248Z,31.50
2019-03-22T06:04:16.505Z,31.21
2019-03-22T06:06:44.776Z,32.14
2019-03-22T06:09:13.029Z,31.79
2019-03-22T06:11:41.315Z,31.40
2019-03-22T06:14:09.631Z,31.86
2019-03-22T06:16:37.907Z,32.23
2019-03-22T06:19:06.170Z,31.55
2019-03-22T06:21:34.429Z,32.12
2019-03-22T06:24:02.736Z,32.67
2019-03-22T06:26:30.999Z,33.43
2019-03-22T06:28:59.314Z,35.00
2019-03-22T06:31:27.607Z,34.30
2019-03-22T06:33:55.875Z,32.65
2019-03-22T06:36:24.313Z,32.71
2019-03-22T06:38:52.567Z,31.88
2019-03-22T06:41:20.824Z,31.67
2019-03-22T06:43:49.088Z,31.22
2019-03-22T06:46:17.362Z,30.93
2019-03-22T06:48:45.627Z,31.46
2019-03-22T06:51:13.914Z,31.41
2019-03-22T06:53:42.177Z,31.05
2019-03-22T06:56:10.421Z,30.40
2019-03-22T06:58:38.694Z,31.39
2019-03-22T07:01:06.950Z,32.50
2019-03-22T07:03:35.228Z,32.10
2019-03-22T07:06:03.500Z,32.39
2019-03-22T07:08:31.888Z,30.99
2019-03-22T07:11:00.153Z,30.98
2019-03-22T07:13:28.428Z,30.64
2019-03-22T07:15:56.762Z,31.09
2019-03-22T07:18:25.081Z,30.70
2019-03-22T07:20:53.315Z,31.44
2019-03-22T07:23:21.595Z,30.94
2019-03-22T07:25:49.875Z,30.80
2019-03-22T07:28:18.190Z,30.91
2019-03-22T07:30:46.496Z,29.92
2019-03-22T07:33:14.763Z,30.58
2019-03-22T07:35:43.281Z,30.43
2019-03-22T07:38:11.622Z,29.90
2019-03-22T07:40:39.887Z,29.55
2019-03-22T07:43:10.341Z,30.45
2019-03-22T07:45:38.678Z,29.36
2019-03-22T07:48:06.942Z,29.98
2019-03-22T07:50:35.198Z,29.87
2019-03-22T07:53:03.469Z,29.29
2019-03-22T07:55:31.743Z,28.88
2019-03-22T07:58:00.009Z,28.64
2019-03-22T08:00:31.087Z,28.72
2019-03-22T08:02:58.322Z,28.48
2019-03-22T08:05:26.695Z,28.42
2019-03-22T08:07:56.089Z,27.90
2019-03-22T08:10:24.690Z,28.23
2019-03-22T08:12:52.953Z,27.72
2019-03-22T08:15:29.771Z,27.93
2019-03-22T08:17:58.217Z,28.26
2019-03-22T08:20:26.599Z,28.52
2019-03-22T08:22:54.962Z,29.18
2019-03-22T08:25:23.246Z,30.19
2019-03-22T08:27:51.506Z,30.52
2019-03-22T08:30:19.794Z,29.97
2019-03-22T08:32:50.320Z,28.63
2019-03-22T08:35:18.045Z,27.58
2019-03-22T08:37:52.516Z,27.45
2019-03-22T08:40:16.333Z,27.24
2019-03-22T08:42:44.597Z,27.45
2019-03-22T08:45:13.142Z,27.16
2019-03-22T08:47:41.812Z,27.27
2019-03-22T08:50:10.154Z,27.66
2019-03-22T08:52:38.422Z,26.98
2019-03-22T08:55:06.835Z,26.70
2019-03-22T08:57:35.103Z,27.26
2019-03-22T09:00:05.273Z,27.64
2019-03-22T09:02:33.547Z,26.16
2019-03-22T09:05:02.158Z,26.08
2019-03-22T09:07:30.532Z,26.06
2019-03-22T09:09:58.817Z,26.06
2019-03-22T09:12:27.178Z,25.81
2019-03-22T09:14:55.399Z,25.82
2019-03-22T09:17:23.697Z,26.19
2019-03-22T09:19:51.954Z,25.75
2019-03-22T09:22:20.242Z,25.70
2019-03-22T09:24:48.505Z,25.33
2019-03-22T09:27:16.763Z,25.94
2019-03-22T09:29:47.313Z,25.96
2019-03-22T09:32:15.063Z,26.13
2019-03-22T09:34:43.318Z,24.98
2019-03-22T09:37:11.581Z,25.45
2019-03-22T09:39:39.890Z,27.04
2019-03-22T09:42:08.150Z,25.51
2019-03-22T09:44:43.380Z,25.84
2019-03-22T09:47:06.404Z,25.03
2019-03-22T09:49:34.683Z,25.33
2019-03-22T09:52:03.081Z,24.76
2019-03-22T09:54:31.364Z,25.61
2019-03-22T09:56:59.699Z,24.59
2019-03-22T09:59:27.970Z,24.38
2019-03-22T10:01:56.240Z,24.29
2019-03-22T10:04:24.575Z,24.44
2019-03-22T10:06:52.817Z,24.12
2019-03-22T10:09:21.039Z,24.17
2019-03-22T10:11:49.315Z,24.27
2019-03-22T10:14:17.669Z,24.85
2019-03-22T10:16:47.623Z,24.73
2019-03-22T10:19:15.970Z,24.76
2019-03-22T10:21:44.232Z,25.41
2019-03-22T10:24:12.493Z,24.30
2019-03-22T10:26:40.770Z,25.00
2019-03-22T10:29:09.122Z,24.99
2019-03-22T10:31:37.983Z,24.55
2019-03-22T10:34:06.422Z,24.17
2019-03-22T10:36:34.754Z,24.42
2019-03-22T10:39:04.450Z,23.20
2019-03-22T10:41:32.725Z,23.67
2019-03-22T10:44:01.044Z,23.81
2019-03-22T10:46:29.335Z,22.92
2019-03-22T10:48:57.541Z,23.20
2019-03-22T10:51:25.857Z,22.86
2019-03-22T10:53:54.195Z,23.30
2019-03-22T10:56:24.781Z,22.60
2019-03-22T10:58:52.439Z,22.19
2019-03-22T11:01:20.702Z,23.64
2019-03-22T11:03:49.153Z,21.98
2019-03-22T11:06:25.847Z,22.07
2019-03-22T11:08:47.725Z,21.70
2019-03-22T11:11:16.009Z,23.29
2019-03-22T11:13:44.281Z,24.22
2019-03-22T11:16:12.603Z,23.22
2019-03-22T11:18:40.860Z,22.26
2019-03-22T11:21:09.223Z,22.52
2019-03-22T11:23:37.492Z,22.07
2019-03-22T11:26:05.809Z,22.10
2019-03-22T11:28:34.063Z,22.28
2019-03-22T11:31:04.962Z,21.64
2019-03-22T11:33:32.341Z,22.39
2019-03-22T11:36:00.612Z,22.09
2019-03-22T11:38:28.949Z,20.96
2019-03-22T11:40:57.233Z,22.30
2019-03-22T11:43:25.672Z,21.03
2019-03-22T11:45:54.165Z,21.37
2019-03-22T11:48:22.594Z,20.21
2019-03-22T11:50:51.045Z,21.30
2019-03-22T11:53:19.344Z,20.25
2019-03-22T11:55:47.719Z,19.79
2019-03-22T11:58:16.001Z,18.33
2019-03-22T12:00:44.272Z,19.38
2019-03-22T12:03:12.574Z,18.35
2019-03-22T12:05:40.898Z,18.64
2019-03-22T12:08:09.121Z,18.29
2019-03-22T12:10:37.396Z,17.73
2019-03-22T12:13:05.727Z,17.42
2019-03-22T12:15:34.032Z,17.47
2019-03-22T12:18:02.420Z,17.59
2019-03-22T12:20:30.667Z,17.37
2019-03-22T12:22:58.980Z,17.49
2019-03-22T12:25:27.323Z,17.18
2019-03-22T12:27:55.585Z,16.75
2019-03-22T12:30:23.860Z,17.23
2019-03-22T12:32:52.217Z,16.75
2019-03-22T12:35:20.595Z,17.11
2019-03-22T12:37:48.847Z,16.18
2019-03-22T12:40:23.889Z,16.13
2019-03-22T12:42:52.153Z,16.95
2019-03-22T12:45:28.348Z,16.56
2019-03-22T12:47:56.619Z,15.56
2019-03-22T12:50:26.486Z,17.31
2019-03-22T12:52:54.779Z,15.35
2019-03-22T12:55:23.581Z,16.24
2019-03-22T12:57:51.855Z,15.98
2019-03-22T13:00:24.975Z,16.31
2019-03-22T13:02:53.689Z,15.31
2019-03-22T13:05:22.817Z,16.27
2019-03-22T13:07:51.531Z,16.06
2019-03-22T13:10:25.406Z,15.59
2019-03-22T13:12:53.797Z,15.48
2019-03-22T13:15:22.056Z,15.61
2019-03-22T13:17:50.344Z,15.61
2019-03-22T13:20:18.612Z,14.97
2019-03-22T13:22:46.897Z,15.12
2019-03-22T13:25:16.334Z,15.92
2019-03-22T13:27:44.605Z,15.94
2019-03-22T13:30:30.888Z,15.82
2019-03-22T13:32:59.604Z,15.36
2019-03-22T13:35:27.866Z,16.41
2019-03-22T13:37:56.125Z,15.32
2019-03-22T13:40:33.941Z,15.44
2019-03-22T13:43:10.752Z,15.37
2019-03-22T13:45:39.086Z,14.97
2019-03-22T13:48:07.332Z,15.21
2019-03-22T13:50:37.418Z,15.37
2019-03-22T13:53:05.701Z,15.13
2019-03-22T13:55:33.992Z,14.84
2019-03-22T13:58:02.292Z,15.51
2019-03-22T14:00:30.551Z,15.36
2019-03-22T14:03:03.115Z,15.42
2019-03-22T14:05:28.840Z,16.18
2019-03-22T14:07:57.145Z,17.48
2019-03-22T14:10:29.562Z,17.02
2019-03-22T14:12:59.596Z,15.77
2019-03-22T14:15:30.457Z,15.28
2019-03-22T14:17:58.799Z,15.29
2019-03-22T14:20:27.090Z,15.34
2019-03-22T14:22:55.372Z,16.02
2019-03-22T14:25:23.722Z,16.31
2019-03-22T14:27:52.654Z,17.08
2019-03-22T14:30:20.925Z,16.80
2019-03-22T14:32:49.226Z,17.08
2019-03-22T14:35:17.488Z,17.20
2019-03-22T14:37:45.752Z,16.84
2019-03-22T14:40:15.705Z,16.92
2019-03-22T14:42:44.233Z,17.12
2019-03-22T14:45:12.756Z,17.70
2019-03-22T14:47:41.049Z,17.30
2019-03-22T14:50:12.365Z,16.16
2019-03-22T14:52:40.637Z,15.77
2019-03-22T14:55:10.718Z,15.22
2019-03-22T14:57:48.162Z,14.16
2019-03-22T15:00:11.831Z,14.63
2019-03-22T15:02:40.102Z,13.89
2019-03-22T15:05:08.652Z,14.25
2019-03-22T15:07:36.937Z,13.66
2019-03-22T15:10:09.945Z,14.62
2019-03-22T15:12:38.296Z,14.63
2019-03-22T15:15:24.871Z,13.49
2019-03-22T15:18:03.271Z,12.71
2019-03-22T15:20:41.759Z,13.02
2019-03-22T15:23:13.408Z,13.70
2019-03-22T15:25:52.367Z,14.13
2019-03-22T15:28:24.674Z,13.50
2019-03-22T15:31:11.016Z,13.48
2019-03-22T15:33:46.881Z,13.14
2019-03-22T15:36:33.075Z,13.11
2019-03-22T15:39:19.379Z,12.99
2019-03-22T15:41:47.776Z,12.54
2019-03-22T15:44:16.143Z,13.20
2019-03-22T15:46:44.523Z,12.67
2019-03-22T15:49:12.789Z,12.67
2019-03-22T15:51:41.067Z,13.76
2019-03-22T15:54:09.365Z,12.89
2019-03-22T15:56:38.586Z,12.89
2019-03-22T15:59:06.913Z,13.39
2019-03-22T16:01:35.778Z,13.78
2019-03-22T16:04:04.114Z,13.78
2019-03-22T16:06:32.492Z,13.60
2019-03-22T16:09:00.825Z,13.75
2019-03-22T16:11:29.116Z,13.45
2019-03-22T16:13:57.378Z,13.88
2019-03-22T16:16:25.733Z,13.88
2019-03-22T16:18:53.994Z,14.02
2019-03-22T16:21:22.298Z,13.71
2019-03-22T16:23:50.596Z,13.64
2019-03-22T16:26:18.866Z,13.33
2019-03-22T16:28:47.151Z,13.80
2019-03-22T16:31:15.447Z,13.68
2019-03-22T16:33:43.731Z,14.77
2019-03-22T16:36:12.029Z,14.11
2019-03-22T16:38:40.316Z,14.83
2019-03-22T16:41:08.644Z,14.67
2019-03-22T16:43:36.965Z,14.70
2019-03-22T16:46:05.358Z,15.10
2019-03-22T16:48:33.662Z,14.34
2019-03-22T16:51:01.924Z,14.30
2019-03-22T16:53:30.248Z,14.27
2019-03-22T16:55:58.548Z,15.67
2019-03-22T16:58:26.840Z,16.99
2019-03-22T17:00:55.198Z,18.66
2019-03-22T17:03:23.471Z,18.57
2019-03-22T17:05:51.752Z,19.12
2019-03-22T17:08:20.158Z,18.71
2019-03-22T17:10:48.529Z,19.54
2019-03-22T17:13:16.840Z,18.38
2019-03-22T17:15:45.119Z,19.30
2019-03-22T17:18:15.055Z,19.02
2019-03-22T17:20:43.309Z,19.14
2019-03-22T17:23:11.586Z,19.45
2019-03-22T17:25:39.866Z,19.54
2019-03-22T17:28:08.154Z,19.27
2019-03-22T17:30:36.411Z,19.60
2019-03-22T17:33:08.062Z,19.15
2019-03-22T17:35:36.478Z,19.52
2019-03-22T17:38:04.823Z,19.38
2019-03-22T17:40:33.033Z,19.74
2019-03-22T17:43:01.323Z,19.85
2019-03-22T17:45:29.587Z,19.49
2019-03-22T17:47:57.849Z,20.28
2019-03-22T17:50:26.158Z,20.01
2019-03-22T17:52:54.433Z,20.31
2019-03-22T17:55:22.692Z,20.56
2019-03-22T17:57:50.984Z,20.77
2019-03-22T18:00:26.997Z,20.44
2019-03-22T18:02:55.325Z,20.64
2019-03-22T18:05:23.613Z,20.09
2019-03-22T18:07:51.894Z,20.23
2019-03-22T18:10:20.164Z,20.88
2019-03-22T18:12:48.549Z,20.57
2019-03-22T18:15:18.057Z,20.37
2019-03-22T18:17:46.542Z,20.61
2019-03-22T18:20:15.861Z,20.93
2019-03-22T18:22:44.128Z,21.45
2019-03-22T18:25:12.581Z,21.12
2019-03-22T18:27:40.878Z,21.21
2019-03-22T18:30:13.526Z,21.77
2019-03-22T18:32:41.821Z,21.68
2019-03-22T18:35:10.542Z,20.85
2019-03-22T18:37:38.881Z,21.06
2019-03-22T18:40:09.385Z,23.13
2019-03-22T18:42:37.706Z,21.80
2019-03-22T18:45:08.385Z,21.25
2019-03-22T18:47:36.772Z,21.95
2019-03-22T18:50:09.762Z,21.34
2019-03-22T18:52:38.036Z,21.70
2019-03-22T18:55:07.225Z,21.89
2019-03-22T18:57:36.302Z,22.21
2019-03-22T19:00:10.174Z,22.53
2019-03-22T19:02:38.446Z,22.36
2019-03-22T19:05:07.756Z,22.25
2019-03-22T19:07:36.016Z,22.99
2019-03-22T19:10:07.091Z,23.10
2019-03-22T19:12:35.371Z,24.30
2019-03-22T19:15:04.754Z,23.06
2019-03-22T19:17:35.422Z,23.16
2019-03-22T19:20:08.178Z,24.05
2019-03-22T19:22:36.530Z,23.92
2019-03-22T19:25:05.930Z,24.79
2019-03-22T19:27:34.208Z,23.51
2019-03-22T19:30:03.155Z,23.26
2019-03-22T19:32:31.493Z,23.09
2019-03-22T19:34:59.892Z,24.56
2019-03-22T19:37:28.220Z,24.88
2019-03-22T19:39:56.496Z,24.98
2019-03-22T19:42:24.785Z,25.48
2019-03-22T19:44:53.067Z,26.55
2019-03-22T19:47:23.681Z,24.41
2019-03-22T19:49:51.344Z,24.36
2019-03-22T19:52:19.625Z,25.01
2019-03-22T19:54:47.919Z,24.46
2019-03-22T19:57:16.205Z,25.83
2019-03-22T19:59:44.490Z,26.12
2019-03-22T20:02:12.883Z,25.85
2019-03-22T20:04:41.164Z,25.26
2019-03-22T20:07:09.506Z,25.55
2019-03-22T20:09:37.793Z,25.53
2019-03-22T20:12:06.060Z,25.69
2019-03-22T20:14:34.332Z,25.89
2019-03-22T20:17:02.615Z,26.21
2019-03-22T20:19:30.905Z,26.77
2019-03-22T20:21:59.194Z,26.22
2019-03-22T20:24:27.534Z,26.28
2019-03-22T20:26:55.931Z,26.09
2019-03-22T20:29:24.219Z,25.71
2019-03-22T20:31:52.743Z,26.24
2019-03-22T20:34:21.028Z,26.24
2019-03-22T20:36:49.325Z,26.90
2019-03-22T20:39:17.640Z,26.14
2019-03-22T20:41:45.992Z,26.88
2019-03-22T20:44:14.355Z,26.15
2019-03-22T20:46:42.645Z,25.71
2019-03-22T20:49:10.958Z,26.26
2019-03-22T20:51:39.240Z,27.17
2019-03-22T20:54:07.511Z,26.21
2019-03-22T20:56:35.783Z,25.04
2019-03-22T20:59:04.150Z,27.45
2019-03-22T21:01:32.436Z,27.07
2019-03-22T21:04:00.698Z,26.55
2019-03-22T21:06:28.975Z,26.00
2019-03-22T21:08:57.267Z,27.59
2019-03-22T21:11:26.735Z,28.95
2019-03-22T21:13:54.992Z,26.95
2019-03-22T21:16:23.258Z,27.20
2019-03-22T21:18:51.532Z,27.00
2019-03-22T21:21:19.805Z,27.23
2019-03-22T21:23:48.090Z,27.42
2019-03-22T21:26:16.391Z,27.15
2019-03-22T21:28:44.667Z,28.37
2019-03-22T21:31:13.002Z,29.08
2019-03-22T21:33:41.285Z,27.80
2019-03-22T21:36:09.609Z,28.39
2019-03-22T21:38:37.964Z,28.98
2019-03-22T21:41:06.240Z,28.21
2019-03-22T21:43:34.503Z,29.16
2019-03-22T21:46:02.867Z,27.37
2019-03-22T21:48:31.126Z,27.71
2019-03-22T21:50:59.392Z,28.44
2019-03-22T21:53:27.659Z,28.24
2019-03-22T21:55:55.924Z,27.32
2019-03-22T21:58:24.300Z,27.78
2019-03-22T22:00:52.669Z,28.71
2019-03-22T22:03:20.961Z,30.08
2019-03-22T22:05:49.322Z,28.58
2019-03-22T22:08:17.589Z,28.24
2019-03-22T22:10:45.877Z,27.20
2019-03-22T22:13:14.154Z,26.73
2019-03-22T22:15:42.418Z,29.50
2019-03-22T22:18:10.694Z,30.18
2019-03-22T22:20:38.981Z,28.61
2019-03-22T22:23:07.261Z,29.70
2019-03-22T22:25:35.559Z,30.29
2019-03-22T22:28:03.854Z,30.27
2019-03-22T22:30:32.153Z,30.12
2019-03-22T22:33:00.415Z,30.78
2019-03-22T22:35:28.677Z,30.62
2019-03-22T22:37:57.032Z,31.53
2019-03-22T22:40:25.324Z,30.06
2019-03-22T22:42:53.608Z,29.88
2019-03-22T22:45:21.852Z,30.39
2019-03-22T22:47:50.128Z,29.22
2019-03-22T22:50:18.423Z,28.44
2019-03-22T22:52:49.269Z,28.29
2019-03-22T22:55:17.550Z,27.98
2019-03-22T22:57:45.862Z,28.85
2019-03-22T23:00:16.550Z,28.08
2019-03-22T23:02:45.263Z,29.38
2019-03-22T23:05:13.600Z,28.74
2019-03-22T23:07:41.879Z,27.75
2019-03-22T23:10:12.616Z,30.67
2019-03-22T23:12:40.266Z,30.93
2019-03-22T23:15:09.294Z,30.84
2019-03-22T23:17:37.555Z,29.07
2019-03-22T23:20:07.146Z,28.54
2019-03-22T23:22:35.418Z,28.36
2019-03-22T23:25:04.880Z,28.30
2019-03-22T23:27:33.159Z,31.24
2019-03-22T23:30:01.435Z,30.59
2019-03-22T23:32:29.708Z,30.10
2019-03-22T23:34:59.173Z,31.02
2019-03-22T23:37:27.836Z,30.85
2019-03-22T23:39:56.092Z,31.09
2019-03-22T23:42:24.380Z,30.93
2019-03-22T23:44:52.649Z,30.51
2019-03-22T23:47:20.960Z,29.33
2019-03-22T23:49:49.250Z,30.60
2019-03-22T23:52:17.570Z,30.36
2019-03-22T23:54:45.849Z,30.53
2019-03-22T23:57:14.131Z,29.86
2019-03-22T23:59:42.386Z,30.75
